Terminal Aerodrome Forecast
Issued by NWS Charleston, WV

Current Version | Previous Version | Text Only | Print | Product List | Glossary Off
Versions: 1 2 3 4 5 6 7 8 9 10 11 12 13 14 15 16 17 18 19 20 21 22 23

000
FTUS41 KRLX 051600 AAC
TAFCRW
TAF AMD
KCRW 051610Z 0516/0612 33006KT 1SM -SN BR OVC006
      TEMPO 0516/0517 1/2SM SN FG OVC003
     FM051900 36006KT 2SM -SN BR OVC008
     FM052100 33008KT 5SM -SN OVC015
     FM052300 33005KT P6SM OVC025
     FM060500 00000KT P6SM SCT030=

USA.gov is the U.S. government's official web portal to all federal, state and local government web resources and services.